颱風時的香港機場天氣 VHHH METAR

支 持 本 站: 捐贈伺服器等運維費用,感謝您的支持!

昨天台風"天兔"襲港,從晚上6點起停止所有飛機起飛,7點後停止降落,一天中共有370趟航班被取消,跑道上一片寂靜。這個時候的METAR 航空機場例行天氣報告是什麼樣子的?

先看看昨天18點的天氣:
221100Z 31030KT 7000 -SHRA FEW015 SCT025 27/24 Q0990 TEMPO 3500 SHRA
風速超過55公里/小時,這個確實有些大了;能見度7公里,一般;陣雨,雨量倒是不大;雲量也不是太大;溫度27度,霧點24度,空氣濕度極大;氣壓990百帕斯卡,低氣壓很明顯。

半小時後:
221136Z 32033KT 3800 SHRA FEW015 SCT030 27/24 Q0990 TEMPO 3500 SHRA
可以看到視程劇減到3800米,雨量大了些,其他數據沒有大的變化

這之後基本天氣沒有大的變化,但到了晚上22點以後,風速達到最大:
221430Z 28035G46KT 5000 -SHRA FEW015 SCT030 27/24 Q0987 RERA TEMPO 3500 SHRA
221522Z 28033G45KT 5000 SHRA FEW015 SCT030 26/24 Q0987 TEMPO 3500 SHRA
陣風風速超過90公里/小時,氣壓987百帕斯卡,其他數據基本維持不變

後來的0點20分的發布數據最為詳細,每條跑道的視程給了出來:
221620Z 26030KT 2800 1100N R07R/P2000 R25L/P2000 R07L/1600VP2000D R25R/1900VP2000U +SHRA FEW015 SCT025 26/24 Q0988 TEMPO 3500 SHRA
風速風向: 260度 30節 時速56公里,
能見度:2800米,
RVR跑道視程: 07R跑道2000米,25L跑道2000米,07L跑道1600米到2000米且在下降中,25R1900米到2000米且在上升中,
其他的數據變化不大。

能見度最短時為凌晨2點47分,達到2400米:
221847Z 22031G45KT 2400 +SHRA FEW010 SCT025 25/24 Q0991 TEMPO 3500 SHRA


支 持 本 站: 捐贈伺服器等運維費用,感謝您的支持!

再看一下現在的最新數據:
222223Z 22017KT 4800 SHRA FEW015 SCT030 26/24 Q0995 TEMPO 3500 SHRA
222230Z 23016KT 5000 SHRA FEW015 SCT030 26/24 Q0995 TEMPO 3500 SHRA
風速減弱到17節,時速30公里,估計保持這個趨勢,航班不久就可以再開了吧。

昨日的數據一覽:


○參考資料
METAR 航空機場例行天氣報告 格式總結
颱風時的羽田機場通播ATIS是什麼樣的?

支 持 本 站: 捐贈伺服器等運維費用,感謝您的支持!